Time;durP1;ratioP1;P1;durP2;ratioP2;P2;SDS_P1;SDS_P2;PMS_P1;PMS_P2;Temp;Humidity;BMP_temperature;BMP_pressure;BME280_temperature;BME280_humidity;BME280_pressure;Samples;Min_cycle;Max_cycle;Signal;HPM_P1;HPM_P2
2023/08/30 00:00:43;;;;;;;14.07;12.57;;;14.30;99.90;;;;;;5048521;28;20037;-77
2023/08/30 00:03:08;;;;;;;14.68;13.13;;;14.20;99.90;;;;;;5015911;28;20509;-77
2023/08/30 00:05:34;;;;;;;14.77;13.18;;;14.20;99.90;;;;;;5035673;28;20074;-77
2023/08/30 00:08:00;;;;;;;14.88;13.27;;;14.20;99.90;;;;;;5052445;28;20033;-77
2023/08/30 00:10:25;;;;;;;13.45;12.05;;;14.20;99.90;;;;;;5035563;28;20042;-77
2023/08/30 00:12:51;;;;;;;15.05;13.45;;;14.10;99.90;;;;;;5052357;28;20478;-77
2023/08/30 00:15:16;;;;;;;15.93;12.85;;;14.10;99.90;;;;;;5052272;28;20033;-77
2023/08/30 00:17:42;;;;;;;13.18;11.77;;;14.10;99.90;;;;;;5052254;28;20042;-77
2023/08/30 00:20:08;;;;;;;14.27;12.48;;;14.10;99.90;;;;;;5035180;28;20041;-77
2023/08/30 00:22:35;;;;;;;14.05;12.23;;;14.00;99.90;;;;;;5035607;28;20081;-77
2023/08/30 00:25:01;;;;;;;13.93;12.35;;;14.00;99.90;;;;;;5035616;28;20033;-77
2023/08/30 00:27:27;;;;;;;14.15;12.15;;;14.00;99.90;;;;;;5035056;28;20050;-77
2023/08/30 00:29:52;;;;;;;13.90;12.20;;;14.00;99.90;;;;;;5035214;28;20037;-77
2023/08/30 00:32:18;;;;;;;13.68;11.63;;;14.00;99.90;;;;;;5036465;28;20410;-77
2023/08/30 00:34:44;;;;;;;15.70;12.60;;;14.00;99.90;;;;;;5035138;28;20037;-77
2023/08/30 00:37:09;;;;;;;16.80;13.15;;;14.00;99.90;;;;;;5035089;28;20041;-76
2023/08/30 00:39:38;;;;;;;16.13;13.32;;;14.00;99.90;;;;;;5034822;28;20151;-76
2023/08/30 00:42:07;;;;;;;15.18;12.93;;;14.00;99.90;;;;;;5018518;28;20044;-76
2023/08/30 00:44:35;;;;;;;16.13;14.43;;;14.00;99.90;;;;;;5018468;28;20029;-76
2023/08/30 00:47:02;;;;;;;14.95;13.27;;;14.00;99.90;;;;;;5018369;28;20481;-76
2023/08/30 00:49:31;;;;;;;17.00;13.15;;;14.00;99.90;;;;;;5018110;28;20041;-76
2023/08/30 00:52:02;;;;;;;16.05;13.55;;;14.00;99.90;;;;;;5033327;28;20037;-76
2023/08/30 00:54:27;;;;;;;15.57;13.00;;;14.00;99.90;;;;;;5051196;28;20049;-77
2023/08/30 00:56:54;;;;;;;16.58;13.98;;;14.00;99.90;;;;;;5018293;28;20052;-77
2023/08/30 00:59:20;;;;;;;15.43;13.80;;;14.00;99.90;;;;;;5017995;28;20059;-77
2023/08/30 01:01:45;;;;;;;16.65;14.30;;;13.90;99.90;;;;;;5035894;28;20045;-77
2023/08/30 01:04:11;;;;;;;18.45;15.13;;;13.90;99.90;;;;;;5034980;28;20385;-77
2023/08/30 01:06:37;;;;;;;16.00;13.20;;;13.90;99.90;;;;;;5034532;28;20033;-77
2023/08/30 01:09:03;;;;;;;14.88;12.95;;;13.90;99.90;;;;;;5034510;28;20118;-77
2023/08/30 01:11:53;;;;;;;15.48;13.68;;;13.90;99.90;;;;;;5034461;28;20498;-78
2023/08/30 01:14:24;;;;;;;15.50;12.70;;;13.90;99.90;;;;;;5035406;28;20037;-78
2023/08/30 01:16:50;;;;;;;15.27;13.15;;;13.90;99.90;;;;;;5034153;28;20128;-78
2023/08/30 01:19:36;;;;;;;15.50;12.63;;;13.90;99.90;;;;;;5035535;28;20120;-77
2023/08/30 01:22:11;;;;;;;16.98;13.82;;;13.90;99.90;;;;;;5034384;28;20105;-77
2023/08/30 01:25:12;;;;;;;14.45;12.93;;;13.90;99.90;;;;;;5050862;28;20494;-77
2023/08/30 01:27:39;;;;;;;16.25;13.13;;;13.90;99.90;;;;;;5017682;28;20104;-77
2023/08/30 01:30:07;;;;;;;15.57;12.13;;;13.90;99.90;;;;;;5035418;28;20041;-77
2023/08/30 01:32:34;;;;;;;14.32;11.88;;;13.90;99.90;;;;;;5017543;28;20049;-78
2023/08/30 01:35:01;;;;;;;14.85;11.77;;;13.80;99.90;;;;;;5034159;28;20049;-77
2023/08/30 01:37:27;;;;;;;14.68;12.02;;;13.90;99.90;;;;;;5033926;28;20045;-77
2023/08/30 01:39:56;;;;;;;13.40;11.07;;;13.90;99.90;;;;;;5035174;28;20053;-77
2023/08/30 01:42:24;;;;;;;13.85;11.60;;;13.90;99.90;;;;;;5033903;28;20037;-77
2023/08/30 01:44:57;;;;;;;12.00;9.70;;;13.80;99.90;;;;;;5017276;28;20038;-77
2023/08/30 01:47:25;;;;;;;16.23;11.68;;;13.80;99.90;;;;;;5017579;28;20450;-77
2023/08/30 01:49:52;;;;;;;13.80;11.63;;;13.80;99.90;;;;;;5033684;28;20478;-77
2023/08/30 01:52:18;;;;;;;13.43;10.90;;;13.80;99.90;;;;;;5017242;28;20521;-77
2023/08/30 01:54:45;;;;;;;14.38;12.30;;;13.80;99.90;;;;;;5017149;28;20044;-77
2023/08/30 01:57:11;;;;;;;15.80;11.63;;;13.80;99.90;;;;;;5033611;28;20520;-77
2023/08/30 01:59:36;;;;;;;16.23;11.15;;;13.80;99.90;;;;;;5016900;28;20041;-77
2023/08/30 02:02:03;;;;;;;14.10;10.90;;;13.80;99.90;;;;;;5034724;28;20064;-76
2023/08/30 02:04:31;;;;;;;13.93;11.57;;;13.80;99.90;;;;;;5034632;28;20041;-77
2023/08/30 02:07:19;;;;;;;14.00;11.40;;;13.80;99.90;;;;;;5017180;28;20033;-77
2023/08/30 02:09:57;;;;;;;14.73;11.60;;;13.70;99.90;;;;;;5033203;28;20076;-76
2023/08/30 02:12:26;;;;;;;13.65;11.23;;;13.70;99.90;;;;;;5033369;28;20120;-77
2023/08/30 02:14:53;;;;;;;13.55;11.50;;;13.70;99.90;;;;;;5048981;28;20049;-77
2023/08/30 02:17:19;;;;;;;14.20;11.63;;;13.70;99.90;;;;;;5030838;28;20048;-77
2023/08/30 02:19:45;;;;;;;13.05;10.75;;;13.60;99.90;;;;;;5052850;28;20044;-77
2023/08/30 02:22:11;;;;;;;13.40;11.15;;;13.60;99.90;;;;;;5053316;28;20037;-77
2023/08/30 02:24:37;;;;;;;13.40;10.90;;;13.60;99.90;;;;;;5052942;28;20037;-77
2023/08/30 02:27:03;;;;;;;13.40;10.88;;;13.50;99.90;;;;;;5052812;28;20052;-76
2023/08/30 02:29:28;;;;;;;13.95;10.75;;;13.50;99.90;;;;;;5052797;28;20405;-77
2023/08/30 02:31:54;;;;;;;12.90;10.48;;;13.50;99.90;;;;;;5053079;28;20405;-77
2023/08/30 02:34:19;;;;;;;13.93;11.02;;;13.40;99.90;;;;;;5053065;28;20098;-77
2023/08/30 02:36:45;;;;;;;13.70;10.50;;;13.40;99.90;;;;;;5036384;28;20043;-77
2023/08/30 02:39:13;;;;;;;13.05;11.27;;;13.40;99.90;;;;;;5052610;28;20136;-77
2023/08/30 02:41:40;;;;;;;13.30;10.70;;;13.40;99.90;;;;;;5036217;28;20436;-77
2023/08/30 02:44:07;;;;;;;13.48;10.57;;;13.40;99.90;;;;;;5036072;28;20076;-77
2023/08/30 02:46:33;;;;;;;14.25;10.73;;;13.40;99.90;;;;;;5036198;28;20091;-77
2023/08/30 02:48:58;;;;;;;12.73;10.40;;;13.40;99.90;;;;;;5052702;28;20531;-77
2023/08/30 02:51:24;;;;;;;12.82;9.75;;;13.30;99.90;;;;;;5052363;28;20481;-77
2023/08/30 02:53:49;;;;;;;11.07;8.70;;;13.30;99.90;;;;;;5052426;28;20436;-77
2023/08/30 02:56:15;;;;;;;11.48;9.75;;;13.30;99.90;;;;;;5035839;28;20099;-77
2023/08/30 02:58:41;;;;;;;12.80;9.27;;;13.30;99.90;;;;;;5052320;28;20102;-78
2023/08/30 03:01:06;;;;;;;11.93;9.80;;;13.30;99.90;;;;;;5053822;28;20083;-77
2023/08/30 03:03:32;;;;;;;12.77;9.55;;;13.30;99.90;;;;;;5052254;28;20036;-77
2023/08/30 03:05:58;;;;;;;12.68;9.90;;;13.30;99.90;;;;;;5035857;28;20118;-77
2023/08/30 03:08:23;;;;;;;12.88;9.68;;;13.30;99.90;;;;;;5052498;28;20086;-77
2023/08/30 03:10:49;;;;;;;14.05;10.23;;;13.30;99.90;;;;;;5052018;28;20576;-77
2023/08/30 03:13:14;;;;;;;13.93;10.18;;;13.40;99.90;;;;;;5052125;28;20111;-78
2023/08/30 03:15:40;;;;;;;13.85;10.10;;;13.40;99.90;;;;;;5035808;28;20076;-77
2023/08/30 03:18:05;;;;;;;12.88;9.55;;;13.40;99.90;;;;;;5052005;28;20041;-77
2023/08/30 03:20:31;;;;;;;14.48;10.52;;;13.40;99.90;;;;;;5051906;28;20091;-77
2023/08/30 03:22:57;;;;;;;13.55;10.32;;;13.40;99.90;;;;;;5035408;28;20072;-77
2023/08/30 03:25:23;;;;;;;12.80;9.93;;;13.50;99.90;;;;;;5051949;28;20045;-77
2023/08/30 03:27:49;;;;;;;13.52;10.30;;;13.50;99.90;;;;;;5051833;28;20063;-77
2023/08/30 03:30:14;;;;;;;12.23;9.43;;;13.50;99.90;;;;;;5053210;28;20045;-77
2023/08/30 03:32:40;;;;;;;14.55;10.68;;;13.40;99.90;;;;;;5052084;28;20052;-77
2023/08/30 03:35:06;;;;;;;12.05;9.95;;;13.30;99.90;;;;;;5035198;28;20493;-77
2023/08/30 03:37:32;;;;;;;13.60;10.63;;;13.40;99.90;;;;;;5034862;28;20093;-77
2023/08/30 03:39:57;;;;;;;15.10;10.88;;;13.30;99.90;;;;;;5034903;28;20508;-77
2023/08/30 03:42:23;;;;;;;13.52;10.25;;;13.20;99.90;;;;;;5051889;28;20042;-77
2023/08/30 03:44:48;;;;;;;13.52;10.85;;;13.20;99.90;;;;;;5051705;28;20045;-77
2023/08/30 03:47:14;;;;;;;15.20;11.00;;;13.20;99.90;;;;;;5051969;28;20074;-76
2023/08/30 03:49:39;;;;;;;13.65;10.73;;;13.10;99.90;;;;;;5035112;28;20045;-76
2023/08/30 03:52:05;;;;;;;14.38;10.57;;;13.10;99.90;;;;;;5051545;28;20440;-77
2023/08/30 03:54:31;;;;;;;13.95;11.10;;;13.00;99.90;;;;;;5052940;28;20033;-77
2023/08/30 03:56:57;;;;;;;13.02;10.15;;;13.00;99.90;;;;;;5051507;28;20049;-77
2023/08/30 03:59:25;;;;;;;13.40;10.57;;;13.00;99.90;;;;;;5035077;28;20416;-77
2023/08/30 04:01:50;;;;;;;15.75;10.90;;;13.00;99.90;;;;;;5052865;28;20040;-77
2023/08/30 04:04:16;;;;;;;14.40;11.57;;;13.00;99.90;;;;;;5034906;28;20048;-77
2023/08/30 04:06:42;;;;;;;14.50;10.82;;;13.00;99.90;;;;;;5068394;28;20043;-77
2023/08/30 04:09:08;;;;;;;14.50;10.70;;;13.00;99.90;;;;;;5052725;28;20512;-77
2023/08/30 04:11:33;;;;;;;15.25;10.55;;;12.90;99.90;;;;;;5034758;28;20049;-76
2023/08/30 04:13:59;;;;;;;14.02;10.60;;;12.90;99.90;;;;;;5034943;28;20041;-76
2023/08/30 04:16:24;;;;;;;14.82;10.70;;;12.90;99.90;;;;;;5034889;28;20041;-77
2023/08/30 04:18:50;;;;;;;13.68;10.27;;;12.90;99.90;;;;;;5034795;28;20554;-77
2023/08/30 04:21:16;;;;;;;13.90;10.57;;;13.00;99.90;;;;;;5068059;28;20048;-77
2023/08/30 04:23:41;;;;;;;12.63;10.13;;;13.00;99.90;;;;;;5052668;28;20079;-77
2023/08/30 04:26:07;;;;;;;13.57;10.50;;;13.00;99.90;;;;;;5052426;28;20089;-77
2023/08/30 04:28:32;;;;;;;14.18;10.32;;;13.00;99.90;;;;;;5051261;28;20445;-77
2023/08/30 04:30:58;;;;;;;12.60;10.00;;;13.00;99.90;;;;;;5052619;28;20416;-77
2023/08/30 04:33:25;;;;;;;12.13;9.48;;;13.00;99.90;;;;;;5051234;28;20048;-77
2023/08/30 04:35:52;;;;;;;14.48;9.88;;;12.90;99.90;;;;;;5051362;28;20178;-77
2023/08/30 04:38:17;;;;;;;12.93;10.07;;;12.90;99.90;;;;;;5034542;28;20037;-77
2023/08/30 04:40:43;;;;;;;14.73;10.55;;;12.90;99.90;;;;;;5051157;28;20044;-76
2023/08/30 04:43:08;;;;;;;15.40;11.40;;;12.80;99.90;;;;;;5051234;28;20045;-77
2023/08/30 04:45:35;;;;;;;13.70;10.48;;;12.80;99.90;;;;;;5051388;28;20043;-76
2023/08/30 04:48:00;;;;;;;13.63;10.00;;;12.90;99.90;;;;;;5051204;28;20033;-77
2023/08/30 04:50:26;;;;;;;14.25;10.70;;;12.90;99.90;;;;;;5035664;28;20045;-76
2023/08/30 04:52:51;;;;;;;13.55;10.02;;;13.00;99.90;;;;;;5038185;28;20044;-77
2023/08/30 04:55:17;;;;;;;15.80;10.23;;;13.00;99.90;;;;;;5054966;28;20370;-76
2023/08/30 04:57:44;;;;;;;14.55;10.70;;;13.00;99.90;;;;;;5038446;28;20382;-77
2023/08/30 05:00:11;;;;;;;12.60;9.80;;;13.00;99.90;;;;;;5037964;28;20131;-77
2023/08/30 05:02:37;;;;;;;13.88;9.93;;;13.00;99.90;;;;;;5054768;28;20436;-76
2023/08/30 05:05:03;;;;;;;13.27;10.18;;;12.90;99.90;;;;;;5054568;28;20037;-76
2023/08/30 05:07:28;;;;;;;14.00;10.30;;;13.00;99.90;;;;;;5054726;28;20131;-76
2023/08/30 05:09:54;;;;;;;14.73;9.93;;;13.00;99.90;;;;;;5055693;28;20052;-76
2023/08/30 05:12:19;;;;;;;14.23;10.50;;;13.00;99.90;;;;;;5054555;28;20109;-76
2023/08/30 05:14:45;;;;;;;14.80;10.05;;;12.90;99.90;;;;;;5054628;28;20039;-76
2023/08/30 05:17:10;;;;;;;14.02;10.70;;;12.90;99.90;;;;;;5054491;28;20166;-76
2023/08/30 05:19:36;;;;;;;13.90;10.30;;;12.90;99.90;;;;;;5054130;28;20052;-76
2023/08/30 05:22:02;;;;;;;15.80;11.15;;;12.90;99.90;;;;;;5055364;28;20032;-76
2023/08/30 05:24:28;;;;;;;13.73;9.57;;;12.90;99.90;;;;;;5037701;28;20033;-76
2023/08/30 05:26:53;;;;;;;13.13;9.80;;;13.00;99.90;;;;;;5055221;28;20490;-76
2023/08/30 05:29:19;;;;;;;14.05;10.15;;;13.00;99.90;;;;;;5054119;28;20045;-76
2023/08/30 05:31:45;;;;;;;14.93;9.63;;;13.00;99.90;;;;;;5054005;28;20048;-76
2023/08/30 05:34:11;;;;;;;14.07;10.15;;;13.10;99.90;;;;;;5037403;28;20063;-76
2023/08/30 05:36:36;;;;;;;14.40;10.70;;;13.10;99.90;;;;;;5055233;28;20091;-76
2023/08/30 05:39:03;;;;;;;12.95;9.30;;;13.00;99.90;;;;;;5053771;28;20041;-76
2023/08/30 05:41:29;;;;;;;12.85;9.88;;;13.10;99.90;;;;;;5037389;28;20366;-76
2023/08/30 05:43:55;;;;;;;14.70;10.18;;;13.00;99.90;;;;;;5053825;28;20041;-76
2023/08/30 05:46:20;;;;;;;15.07;10.00;;;13.10;99.90;;;;;;5053887;28;20033;-76
2023/08/30 05:48:46;;;;;;;13.35;10.05;;;13.00;99.90;;;;;;5053697;28;20501;-76
2023/08/30 05:51:12;;;;;;;13.70;9.85;;;13.10;99.90;;;;;;5037002;28;20041;-76
2023/08/30 05:53:37;;;;;;;14.00;9.80;;;13.00;99.90;;;;;;5037127;28;20037;-76
2023/08/30 05:56:03;;;;;;;13.38;10.00;;;13.00;99.90;;;;;;5037006;28;20048;-76
2023/08/30 05:58:29;;;;;;;17.10;10.48;;;13.10;99.90;;;;;;5053500;28;20398;-76
2023/08/30 06:00:56;;;;;;;14.45;9.88;;;13.00;99.90;;;;;;5053138;28;20029;-76
2023/08/30 06:03:21;;;;;;;14.15;10.07;;;13.10;99.90;;;;;;5053294;28;20080;-77
2023/08/30 06:05:48;;;;;;;14.35;10.40;;;13.20;99.90;;;;;;5053520;28;20470;-77
2023/08/30 06:08:14;;;;;;;14.68;10.38;;;13.20;99.90;;;;;;5053272;28;20096;-76
2023/08/30 06:10:40;;;;;;;14.52;10.27;;;13.20;99.90;;;;;;5036674;28;20068;-76
2023/08/30 06:13:05;;;;;;;13.45;9.57;;;13.20;99.90;;;;;;5054560;28;20132;-77
2023/08/30 06:15:31;;;;;;;15.63;9.43;;;13.20;99.90;;;;;;5036604;28;20040;-76
2023/08/30 06:17:56;;;;;;;15.82;10.02;;;13.30;99.90;;;;;;5053249;28;20099;-77
2023/08/30 06:20:22;;;;;;;14.32;11.07;;;13.30;99.90;;;;;;5053026;28;20068;-76
2023/08/30 06:22:47;;;;;;;15.65;10.38;;;13.30;99.90;;;;;;5054226;28;20037;-76
2023/08/30 06:25:13;;;;;;;13.75;9.50;;;13.40;99.90;;;;;;5069930;28;20090;-76
2023/08/30 06:27:43;;;;;;;13.38;9.38;;;13.40;99.90;;;;;;5052810;28;20049;-77
2023/08/30 06:30:09;;;;;;;13.55;9.70;;;13.50;99.90;;;;;;5053124;28;20044;-76
2023/08/30 06:32:35;;;;;;;15.18;10.13;;;13.50;99.90;;;;;;5052745;28;20044;-77
2023/08/30 06:35:01;;;;;;;13.77;8.65;;;13.60;99.90;;;;;;5036191;28;20043;-77
2023/08/30 06:37:26;;;;;;;14.55;10.50;;;13.60;99.90;;;;;;5052975;28;20033;-77
2023/08/30 06:39:52;;;;;;;14.73;9.98;;;13.70;99.90;;;;;;5036171;28;20029;-76
2023/08/30 06:42:17;;;;;;;14.30;9.68;;;13.70;99.90;;;;;;5036288;28;20059;-76
2023/08/30 06:44:43;;;;;;;16.85;10.45;;;13.70;99.90;;;;;;5052900;28;20497;-77
2023/08/30 06:47:08;;;;;;;15.18;9.73;;;13.80;99.90;;;;;;5052874;28;20493;-76
2023/08/30 06:49:34;;;;;;;15.18;10.50;;;13.80;99.90;;;;;;5035956;28;20127;-77
2023/08/30 06:52:03;;;;;;;15.15;9.95;;;13.90;99.90;;;;;;5052584;28;20033;-77
2023/08/30 06:54:30;;;;;;;15.82;10.77;;;13.90;99.90;;;;;;5052707;28;20048;-76
2023/08/30 06:57:02;;;;;;;14.57;10.90;;;13.90;99.90;;;;;;5052690;28;20044;-77
2023/08/30 06:59:28;;;;;;;;;;;14.00;99.90;;;;;;5052808;28;20087;-77
2023/08/30 07:01:53;;;;;;;14.40;9.85;;;13.90;99.90;;;;;;5052575;28;20284;-77
2023/08/30 07:04:19;;;;;;;14.38;9.80;;;14.00;99.90;;;;;;5052391;28;20044;-77
2023/08/30 07:06:45;;;;;;;15.43;10.38;;;14.00;99.90;;;;;;5052494;28;20070;-77
2023/08/30 07:09:14;;;;;;;16.75;10.90;;;14.00;99.90;;;;;;5052553;28;20045;-77
2023/08/30 07:11:41;;;;;;;14.65;9.70;;;14.00;99.90;;;;;;5052134;28;20079;-77
2023/08/30 07:14:07;;;;;;;14.18;10.40;;;14.00;99.90;;;;;;5051446;28;20167;-77
2023/08/30 07:16:32;;;;;;;14.55;10.32;;;14.00;99.90;;;;;;5052221;28;20493;-77
2023/08/30 07:18:58;;;;;;;14.48;10.18;;;14.00;99.90;;;;;;5035409;28;20382;-77
2023/08/30 07:21:24;;;;;;;15.40;10.60;;;14.10;99.90;;;;;;5051993;28;20122;-77
2023/08/30 07:23:50;;;;;;;14.13;10.00;;;14.20;99.90;;;;;;5051954;28;20167;-77
2023/08/30 07:26:15;;;;;;;14.60;10.00;;;14.10;99.90;;;;;;5052156;28;20069;-77
2023/08/30 07:28:41;;;;;;;15.82;9.98;;;14.20;99.90;;;;;;5051769;28;20060;-77
2023/08/30 07:31:07;;;;;;;14.93;9.48;;;14.20;99.90;;;;;;5051856;28;20041;-77
2023/08/30 07:33:32;;;;;;;14.10;9.48;;;14.20;99.90;;;;;;5052949;28;20072;-77
2023/08/30 07:35:58;;;;;;;14.40;9.95;;;14.20;99.90;;;;;;5051888;28;20530;-77
2023/08/30 07:38:24;;;;;;;17.73;10.13;;;14.30;99.90;;;;;;5053220;28;20460;-77
2023/08/30 07:40:50;;;;;;;16.10;9.93;;;14.30;99.90;;;;;;5052073;28;20040;-77
2023/08/30 07:43:15;;;;;;;15.27;10.35;;;14.40;99.90;;;;;;5035332;28;20469;-77
2023/08/30 07:45:41;;;;;;;14.55;10.15;;;14.40;99.90;;;;;;5053006;28;20559;-77
2023/08/30 07:48:06;;;;;;;16.52;10.32;;;14.50;99.90;;;;;;5035083;28;20041;-77
2023/08/30 07:50:32;;;;;;;13.38;9.35;;;14.50;99.90;;;;;;5051636;28;20069;-77
2023/08/30 07:52:57;;;;;;;14.55;9.88;;;14.50;99.90;;;;;;5035022;28;20091;-77
2023/08/30 07:55:23;;;;;;;16.30;9.65;;;14.60;99.90;;;;;;5035002;28;20405;-77
2023/08/30 07:57:49;;;;;;;16.33;10.77;;;14.70;99.90;;;;;;5035093;28;20051;-77
2023/08/30 08:00:14;;;;;;;15.35;10.27;;;14.80;99.90;;;;;;5051567;28;20044;-77
2023/08/30 08:02:40;;;;;;;16.90;11.30;;;14.80;99.90;;;;;;5052653;28;20535;-77
2023/08/30 08:05:06;;;;;;;15.27;10.55;;;14.80;99.90;;;;;;5034878;28;20041;-77
2023/08/30 08:07:32;;;;;;;16.80;10.75;;;14.80;99.90;;;;;;5034937;28;20119;-77
2023/08/30 08:09:58;;;;;;;16.77;10.52;;;14.90;99.90;;;;;;5052681;28;20119;-77
2023/08/30 08:12:23;;;;;;;16.33;10.55;;;15.00;99.90;;;;;;5051651;28;20041;-77
2023/08/30 08:14:49;;;;;;;15.15;10.80;;;15.00;99.90;;;;;;5052643;28;20047;-77
2023/08/30 08:17:14;;;;;;;16.42;10.38;;;15.10;99.90;;;;;;5034760;28;20044;-77
2023/08/30 08:19:42;;;;;;;15.65;11.40;;;15.20;99.90;;;;;;5051479;28;20037;-77
2023/08/30 08:22:08;;;;;;;16.67;11.70;;;15.30;99.90;;;;;;5034797;28;20041;-77
2023/08/30 08:24:33;;;;;;;14.52;10.05;;;15.40;99.90;;;;;;5036021;28;20036;-77
2023/08/30 08:27:01;;;;;;;16.27;10.75;;;15.50;99.90;;;;;;5055108;28;20084;-77
2023/08/30 08:29:27;;;;;;;18.35;10.88;;;15.60;99.90;;;;;;5038621;28;20063;-77
2023/08/30 08:31:53;;;;;;;15.98;11.05;;;15.60;99.90;;;;;;5055119;28;20045;-78
2023/08/30 08:34:19;;;;;;;17.15;10.77;;;15.60;99.90;;;;;;5055132;28;20045;-77
2023/08/30 08:36:45;;;;;;;17.23;11.55;;;15.60;99.90;;;;;;5055340;28;20041;-77
2023/08/30 08:39:10;;;;;;;16.60;10.07;;;15.60;99.90;;;;;;5055049;28;20055;-77
2023/08/30 08:41:45;;;;;;;14.85;10.40;;;15.60;99.90;;;;;;5055321;28;20032;-77
2023/08/30 08:44:12;;;;;;;14.55;10.13;;;15.70;99.90;;;;;;5056250;28;20041;-77
2023/08/30 08:46:40;;;;;;;15.05;10.23;;;15.70;99.90;;;;;;5056133;28;20397;-77
2023/08/30 08:49:10;;;;;;;15.88;10.88;;;15.70;99.90;;;;;;5054839;28;20040;-78
2023/08/30 08:51:37;;;;;;;17.27;10.77;;;15.70;99.90;;;;;;5055074;28;20393;-77
2023/08/30 08:54:04;;;;;;;15.63;10.13;;;15.70;99.90;;;;;;5038319;28;20041;-77
2023/08/30 08:56:31;;;;;;;15.75;10.82;;;15.70;99.90;;;;;;5054756;28;20497;-77
2023/08/30 08:58:56;;;;;;;15.27;10.55;;;15.80;99.90;;;;;;5037951;28;20543;-77
2023/08/30 09:01:24;;;;;;;19.13;10.70;;;15.80;99.90;;;;;;5054602;28;20044;-77
2023/08/30 09:03:50;;;;;;;14.38;10.55;;;15.80;99.90;;;;;;5037864;28;20566;-77
2023/08/30 09:06:17;;;;;;;14.77;10.77;;;15.80;99.90;;;;;;5038177;28;20366;-77
2023/08/30 09:08:42;;;;;;;15.75;11.30;;;15.90;99.90;;;;;;5054500;28;20076;-77
2023/08/30 09:11:08;;;;;;;16.90;11.05;;;15.90;99.90;;;;;;5054598;28;20452;-77
2023/08/30 09:13:33;;;;;;;18.13;11.77;;;15.90;99.90;;;;;;5037956;28;20435;-77
2023/08/30 09:15:59;;;;;;;20.50;12.93;;;15.90;99.90;;;;;;5054649;28;20067;-77
2023/08/30 09:18:28;;;;;;;27.05;17.52;;;15.90;99.90;;;;;;5037835;28;20044;-77
2023/08/30 09:21:11;;;;;;;18.77;12.30;;;15.90;99.90;;;;;;5054410;28;20393;-77
2023/08/30 09:23:37;;;;;;;;;;;15.90;99.90;;;;;;5038125;28;20063;-77
2023/08/30 09:26:03;;;;;;;14.18;10.77;;;15.80;99.90;;;;;;5055171;28;19924;-77
2023/08/30 09:28:29;;;;;;;18.10;10.88;;;15.80;99.90;;;;;;5054044;28;20110;-77
2023/08/30 09:30:59;;;;;;;16.30;12.13;;;15.70;99.90;;;;;;5037428;28;20555;-77
2023/08/30 09:33:32;;;;;;;15.27;10.10;;;15.70;99.90;;;;;;5053983;28;20063;-77
2023/08/30 09:35:58;;;;;;;13.45;8.70;;;15.70;99.90;;;;;;5036491;28;20485;-77
2023/08/30 09:38:25;;;;;;;16.35;9.43;;;15.70;99.90;;;;;;5055071;28;20041;-77
2023/08/30 09:40:51;;;;;;;15.50;9.40;;;15.80;99.90;;;;;;5055088;28;20122;-77
2023/08/30 09:43:23;;;;;;;14.85;9.00;;;15.70;99.90;;;;;;5054079;28;20091;-77
2023/08/30 09:45:50;;;;;;;13.98;8.98;;;15.60;99.90;;;;;;5053861;28;20052;-77
2023/08/30 09:48:21;;;;;;;13.50;9.02;;;15.50;99.90;;;;;;5053725;28;20041;-77
2023/08/30 09:50:52;;;;;;;13.98;9.07;;;15.60;99.90;;;;;;5053790;28;20033;-76
2023/08/30 09:53:21;;;;;;;13.95;8.80;;;15.50;99.90;;;;;;5055186;28;20044;-76
2023/08/30 09:55:48;;;;;;;14.05;8.77;;;15.50;99.90;;;;;;5053581;28;20554;-76
2023/08/30 09:58:15;;;;;;;16.70;9.50;;;15.50;99.90;;;;;;5054933;28;20100;-76
2023/08/30 10:00:41;;;;;;;12.93;8.50;;;15.40;99.90;;;;;;5054874;28;20049;-76
2023/08/30 10:03:08;;;;;;;13.90;8.80;;;15.40;99.90;;;;;;5053603;28;20059;-76
2023/08/30 10:05:34;;;;;;;13.63;8.20;;;15.40;99.90;;;;;;5036957;28;20037;-76
2023/08/30 10:08:01;;;;;;;13.90;8.38;;;15.30;99.90;;;;;;5053387;28;20040;-76
2023/08/30 10:10:29;;;;;;;12.50;7.70;;;15.30;99.90;;;;;;5053278;28;20543;-77
2023/08/30 10:12:56;;;;;;;10.57;7.07;;;15.40;99.90;;;;;;5054666;28;20051;-77
2023/08/30 10:15:23;;;;;;;12.18;6.63;;;15.60;99.90;;;;;;5053280;28;20099;-77
2023/08/30 10:17:53;;;;;;;11.55;7.55;;;15.50;99.90;;;;;;5053404;28;20049;-77
2023/08/30 10:20:19;;;;;;;10.98;7.00;;;15.60;99.90;;;;;;5053139;28;20052;-77
2023/08/30 10:22:47;;;;;;;10.35;5.88;;;15.60;99.90;;;;;;5054526;28;20119;-77
2023/08/30 10:25:24;;;;;;;10.40;6.15;;;15.60;99.90;;;;;;5036646;28;20128;-77
2023/08/30 10:27:51;;;;;;;9.05;5.53;;;15.70;99.90;;;;;;5052834;28;20053;-78
2023/08/30 10:30:19;;;;;;;10.48;6.07;;;15.70;99.90;;;;;;5052991;28;20087;-78
2023/08/30 10:32:45;;;;;;;9.55;5.72;;;15.70;99.90;;;;;;5052877;28;20041;-77
2023/08/30 10:35:13;;;;;;;11.70;6.28;;;15.70;99.90;;;;;;5052705;28;20535;-78
2023/08/30 10:37:39;;;;;;;12.45;8.30;;;15.70;99.90;;;;;;5052793;28;20032;-77
2023/08/30 10:40:07;;;;;;;13.32;8.63;;;15.70;99.90;;;;;;5054009;28;20120;-77
2023/08/30 10:42:32;;;;;;;13.88;7.93;;;15.70;99.90;;;;;;5052717;28;20051;-77
2023/08/30 10:45:07;;;;;;;12.50;8.68;;;15.70;99.90;;;;;;5035870;28;20029;-77
2023/08/30 10:47:37;;;;;;;12.77;8.73;;;15.70;99.90;;;;;;5051817;28;20033;-78
2023/08/30 10:50:11;;;;;;;14.15;9.70;;;15.70;99.90;;;;;;5035855;28;20049;-78
2023/08/30 10:52:37;;;;;;;13.90;8.07;;;15.80;99.90;;;;;;5036289;28;20040;-78
2023/08/30 10:55:11;;;;;;;11.73;7.55;;;16.10;99.90;;;;;;5035834;28;20045;-79
2023/08/30 10:57:37;;;;;;;11.82;8.05;;;16.10;99.90;;;;;;5052686;28;20063;-79
2023/08/30 11:00:18;;;;;;;10.90;7.38;;;16.10;99.90;;;;;;5052305;28;20087;-78
2023/08/30 11:02:51;;;;;;;11.60;7.63;;;16.10;99.90;;;;;;5053786;28;20049;-78
2023/08/30 11:05:18;;;;;;;11.80;6.80;;;16.00;99.90;;;;;;5035860;28;20495;-78
2023/08/30 11:07:44;;;;;;;12.07;7.63;;;16.10;99.90;;;;;;5035607;28;20120;-78
2023/08/30 11:10:12;;;;;;;11.15;7.18;;;16.10;99.90;;;;;;5035544;28;20045;-78
2023/08/30 11:12:41;;;;;;;12.43;7.60;;;16.10;99.90;;;;;;5035662;28;20048;-78
2023/08/30 11:15:08;;;;;;;12.40;9.32;;;16.10;99.90;;;;;;5052039;28;20103;-78
2023/08/30 11:17:34;;;;;;;12.40;9.00;;;16.00;99.90;;;;;;5052439;28;20048;-78
2023/08/30 11:20:26;;;;;;;12.60;7.57;;;15.90;99.90;;;;;;5052134;28;20077;-78
2023/08/30 11:22:55;;;;;;;11.52;8.15;;;16.10;99.90;;;;;;5051082;28;20056;-78
2023/08/30 11:25:21;;;;;;;12.20;8.43;;;15.90;99.90;;;;;;5052127;28;20172;-78
2023/08/30 11:27:47;;;;;;;15.18;8.70;;;15.80;99.90;;;;;;5051794;28;20135;-79
2023/08/30 11:30:13;;;;;;;11.63;8.38;;;16.00;99.90;;;;;;5052163;28;20037;-78
2023/08/30 11:32:42;;;;;;;12.63;8.32;;;15.90;99.90;;;;;;5051930;28;20063;-77
2023/08/30 11:35:08;;;;;;;12.88;9.02;;;15.80;99.90;;;;;;5035099;28;20041;-77
2023/08/30 11:37:35;;;;;;;12.57;9.23;;;15.70;99.90;;;;;;5053280;28;20041;-77
2023/08/30 11:40:06;;;;;;;13.45;9.07;;;15.60;99.90;;;;;;5051922;28;20094;-77
2023/08/30 11:42:32;;;;;;;13.20;9.57;;;15.60;99.90;;;;;;5035315;28;20043;-77
2023/08/30 11:44:59;;;;;;;13.30;9.65;;;15.60;99.90;;;;;;5035176;28;20400;-77
2023/08/30 11:47:26;;;;;;;14.55;10.20;;;15.60;99.90;;;;;;5051757;28;20032;-77
2023/08/30 11:49:56;;;;;;;14.85;10.10;;;15.60;99.90;;;;;;5035309;28;20044;-77
2023/08/30 11:52:24;;;;;;;13.05;9.13;;;15.60;99.90;;;;;;5053108;28;20052;-77
2023/08/30 11:54:50;;;;;;;11.90;8.55;;;15.70;99.90;;;;;;5051650;28;20095;-77
2023/08/30 11:57:16;;;;;;;11.80;8.82;;;15.60;99.90;;;;;;5034898;28;20496;-77
2023/08/30 11:59:41;;;;;;;12.85;8.35;;;15.60;99.90;;;;;;5053251;28;20048;-77
2023/08/30 12:02:08;;;;;;;11.07;7.40;;;15.60;99.90;;;;;;5055662;28;20447;-77
2023/08/30 12:04:43;;;;;;;10.15;7.28;;;15.60;99.90;;;;;;5055971;28;20041;-77
2023/08/30 12:07:10;;;;;;;9.55;7.03;;;15.60;99.90;;;;;;5039129;28;20037;-77
2023/08/30 12:09:36;;;;;;;10.70;7.93;;;15.70;99.90;;;;;;5039274;28;20095;-77
2023/08/30 12:12:12;;;;;;;9.85;6.90;;;15.70;99.90;;;;;;5039300;28;20396;-76
2023/08/30 12:14:38;;;;;;;10.23;7.10;;;15.60;99.90;;;;;;5039129;28;20043;-76
2023/08/30 12:17:04;;;;;;;11.15;7.35;;;15.70;99.90;;;;;;5056929;28;20041;-77
2023/08/30 12:19:31;;;;;;;10.45;7.07;;;15.70;99.90;;;;;;5055322;28;20045;-76
2023/08/30 12:22:04;;;;;;;11.55;7.05;;;15.70;99.90;;;;;;5055442;28;20120;-76
2023/08/30 12:24:41;;;;;;;10.48;7.07;;;15.70;99.90;;;;;;5072169;28;20093;-76
2023/08/30 12:27:06;;;;;;;11.15;7.30;;;15.70;99.90;;;;;;5056256;28;20049;-76
2023/08/30 12:29:32;;;;;;;10.68;7.28;;;15.70;99.90;;;;;;5055258;28;20068;-77